sensor_id;sensor_type;location;lat;lon;timestamp;pressure;altitude;pressure_sealevel;temperature;humidity
37291;BME280;23175;-33.706;151.094;2023-01-26T00:01:37;99505.59;;;24.55;41.74
37291;BME280;23175;-33.706;151.094;2023-01-26T00:04:06;99506.56;;;24.36;41.35
37291;BME280;23175;-33.706;151.094;2023-01-26T00:06:35;99502.70;;;25.30;39.55
37291;BME280;23175;-33.706;151.094;2023-01-26T00:09:05;99494.77;;;26.25;38.92
37291;BME280;23175;-33.706;151.094;2023-01-26T00:11:34;99498.37;;;25.04;39.66
37291;BME280;23175;-33.706;151.094;2023-01-26T00:14:03;99495.32;;;26.93;37.63
37291;BME280;23175;-33.706;151.094;2023-01-26T00:16:33;99492.67;;;23.79;40.99
37291;BME280;23175;-33.706;151.094;2023-01-26T00:19:02;99486.19;;;26.42;38.88
37291;BME280;23175;-33.706;151.094;2023-01-26T00:21:31;99486.26;;;24.19;41.24
37291;BME280;23175;-33.706;151.094;2023-01-26T00:24:01;99480.66;;;26.04;37.77
37291;BME280;23175;-33.706;151.094;2023-01-26T00:26:31;99476.84;;;25.91;38.76
37291;BME280;23175;-33.706;151.094;2023-01-26T00:29:00;99471.43;;;26.88;36.66
37291;BME280;23175;-33.706;151.094;2023-01-26T00:31:29;99468.09;;;25.57;38.95
37291;BME280;23175;-33.706;151.094;2023-01-26T00:33:58;99465.81;;;26.86;35.95
37291;BME280;23175;-33.706;151.094;2023-01-26T00:36:27;99462.12;;;26.63;35.53
37291;BME280;23175;-33.706;151.094;2023-01-26T00:38:56;99459.27;;;27.99;32.26
37291;BME280;23175;-33.706;151.094;2023-01-26T00:41:25;99452.24;;;27.25;33.45
37291;BME280;23175;-33.706;151.094;2023-01-26T00:43:54;99453.36;;;25.58;36.77
37291;BME280;23175;-33.706;151.094;2023-01-26T00:46:23;99448.66;;;26.99;33.18
37291;BME280;23175;-33.706;151.094;2023-01-26T00:48:52;99444.87;;;24.24;36.80
37291;BME280;23175;-33.706;151.094;2023-01-26T00:51:23;99440.11;;;27.35;32.37
37291;BME280;23175;-33.706;151.094;2023-01-26T00:53:52;99442.50;;;28.45;30.85
37291;BME280;23175;-33.706;151.094;2023-01-26T00:56:21;99438.39;;;25.95;32.42
37291;BME280;23175;-33.706;151.094;2023-01-26T00:58:50;99434.92;;;28.58;31.37
37291;BME280;23175;-33.706;151.094;2023-01-26T01:01:19;99437.07;;;28.37;31.28
37291;BME280;23175;-33.706;151.094;2023-01-26T01:03:48;99427.51;;;27.16;31.79
37291;BME280;23175;-33.706;151.094;2023-01-26T01:06:17;99425.06;;;25.52;34.48
37291;BME280;23175;-33.706;151.094;2023-01-26T01:08:47;99423.96;;;26.54;31.57
37291;BME280;23175;-33.706;151.094;2023-01-26T01:11:17;99421.33;;;24.85;32.61
37291;BME280;23175;-33.706;151.094;2023-01-26T01:13:46;99416.91;;;27.53;30.56
37291;BME280;23175;-33.706;151.094;2023-01-26T01:16:15;99415.80;;;25.78;32.93
37291;BME280;23175;-33.706;151.094;2023-01-26T01:18:45;99408.09;;;26.72;31.76
37291;BME280;23175;-33.706;151.094;2023-01-26T01:21:16;99402.02;;;26.31;30.46
37291;BME280;23175;-33.706;151.094;2023-01-26T01:23:45;99402.39;;;26.38;27.94
37291;BME280;23175;-33.706;151.094;2023-01-26T01:26:15;99406.60;;;27.44;30.00
37291;BME280;23175;-33.706;151.094;2023-01-26T01:28:44;99398.47;;;27.59;28.39
37291;BME280;23175;-33.706;151.094;2023-01-26T01:31:15;99395.88;;;28.78;25.28
37291;BME280;23175;-33.706;151.094;2023-01-26T01:33:45;99389.10;;;29.48;23.44
37291;BME280;23175;-33.706;151.094;2023-01-26T01:36:15;99386.65;;;27.27;26.60
37291;BME280;23175;-33.706;151.094;2023-01-26T01:38:45;99385.47;;;28.87;23.25
37291;BME280;23175;-33.706;151.094;2023-01-26T01:41:17;99384.31;;;26.68;26.00
37291;BME280;23175;-33.706;151.094;2023-01-26T01:43:46;99381.69;;;27.88;23.98
37291;BME280;23175;-33.706;151.094;2023-01-26T01:46:24;99379.50;;;29.22;22.29
37291;BME280;23175;-33.706;151.094;2023-01-26T01:49:00;99380.15;;;27.56;24.39
37291;BME280;23175;-33.706;151.094;2023-01-26T01:51:36;99373.29;;;28.32;22.93
37291;BME280;23175;-33.706;151.094;2023-01-26T01:54:11;99372.82;;;28.21;23.12
37291;BME280;23175;-33.706;151.094;2023-01-26T01:56:43;99372.76;;;29.92;22.64
37291;BME280;23175;-33.706;151.094;2023-01-26T01:59:15;99372.24;;;31.01;20.67
37291;BME280;23175;-33.706;151.094;2023-01-26T02:01:45;99366.38;;;28.23;23.28
37291;BME280;23175;-33.706;151.094;2023-01-26T02:04:15;99358.71;;;30.32;20.91
37291;BME280;23175;-33.706;151.094;2023-01-26T02:06:48;99356.99;;;29.48;21.58
37291;BME280;23175;-33.706;151.094;2023-01-26T02:09:21;99357.36;;;28.47;21.62
37291;BME280;23175;-33.706;151.094;2023-01-26T02:11:53;99349.21;;;30.60;19.82
37291;BME280;23175;-33.706;151.094;2023-01-26T02:14:23;99344.23;;;29.62;20.38
37291;BME280;23175;-33.706;151.094;2023-01-26T02:16:53;99338.16;;;30.30;20.32
37291;BME280;23175;-33.706;151.094;2023-01-26T02:19:25;99344.64;;;28.04;20.56
37291;BME280;23175;-33.706;151.094;2023-01-26T02:22:01;99337.41;;;30.51;19.64
37291;BME280;23175;-33.706;151.094;2023-01-26T02:24:37;99332.29;;;29.10;20.76
37291;BME280;23175;-33.706;151.094;2023-01-26T02:27:07;99324.84;;;28.59;20.76
37291;BME280;23175;-33.706;151.094;2023-01-26T02:29:37;99321.55;;;29.93;20.04
37291;BME280;23175;-33.706;151.094;2023-01-26T02:32:07;99320.40;;;30.69;19.63
37291;BME280;23175;-33.706;151.094;2023-01-26T02:34:36;99313.39;;;29.78;18.01
37291;BME280;23175;-33.706;151.094;2023-01-26T02:37:11;99310.71;;;31.31;17.46
37291;BME280;23175;-33.706;151.094;2023-01-26T02:39:46;99308.04;;;29.99;18.91
37291;BME280;23175;-33.706;151.094;2023-01-26T02:42:17;99305.83;;;30.15;18.99
37291;BME280;23175;-33.706;151.094;2023-01-26T02:44:47;99303.79;;;28.03;20.71
37291;BME280;23175;-33.706;151.094;2023-01-26T02:47:18;99297.82;;;28.49;20.77
37291;BME280;23175;-33.706;151.094;2023-01-26T02:49:47;99291.80;;;30.08;20.58
37291;BME280;23175;-33.706;151.094;2023-01-26T02:52:17;99285.06;;;30.42;19.47
37291;BME280;23175;-33.706;151.094;2023-01-26T02:54:47;99287.88;;;30.25;22.19
37291;BME280;23175;-33.706;151.094;2023-01-26T02:57:17;99286.91;;;29.90;26.44
37291;BME280;23175;-33.706;151.094;2023-01-26T02:59:46;99283.20;;;32.40;25.43
37291;BME280;23175;-33.706;151.094;2023-01-26T03:02:16;99281.07;;;30.72;27.63
37291;BME280;23175;-33.706;151.094;2023-01-26T03:04:45;99278.15;;;30.67;27.63
37291;BME280;23175;-33.706;151.094;2023-01-26T03:07:14;99276.55;;;29.68;27.53
37291;BME280;23175;-33.706;151.094;2023-01-26T03:09:44;99272.92;;;31.13;25.08
37291;BME280;23175;-33.706;151.094;2023-01-26T03:12:13;99274.57;;;30.74;25.14
37291;BME280;23175;-33.706;151.094;2023-01-26T03:14:42;99266.93;;;29.46;26.29
37291;BME280;23175;-33.706;151.094;2023-01-26T03:17:11;99262.53;;;28.45;27.61
37291;BME280;23175;-33.706;151.094;2023-01-26T03:19:41;99261.24;;;29.97;26.70
37291;BME280;23175;-33.706;151.094;2023-01-26T03:22:10;99262.94;;;30.47;26.89
37291;BME280;23175;-33.706;151.094;2023-01-26T03:24:40;99262.24;;;29.28;29.84
37291;BME280;23175;-33.706;151.094;2023-01-26T03:27:10;99260.92;;;29.93;30.38
37291;BME280;23175;-33.706;151.094;2023-01-26T03:29:39;99256.75;;;31.42;29.24
37291;BME280;23175;-33.706;151.094;2023-01-26T03:32:08;99258.36;;;29.00;31.61
37291;BME280;23175;-33.706;151.094;2023-01-26T03:34:37;99256.01;;;28.34;31.85
37291;BME280;23175;-33.706;151.094;2023-01-26T03:37:06;99256.61;;;30.20;29.82
37291;BME280;23175;-33.706;151.094;2023-01-26T03:39:36;99260.47;;;30.54;28.47
37291;BME280;23175;-33.706;151.094;2023-01-26T03:42:05;99267.31;;;30.95;28.36
37291;BME280;23175;-33.706;151.094;2023-01-26T03:44:35;99263.90;;;29.70;29.04
37291;BME280;23175;-33.706;151.094;2023-01-26T03:47:05;99264.61;;;30.61;28.68
37291;BME280;23175;-33.706;151.094;2023-01-26T03:49:35;99270.17;;;30.27;28.78
37291;BME280;23175;-33.706;151.094;2023-01-26T03:52:05;99267.78;;;28.68;28.58
37291;BME280;23175;-33.706;151.094;2023-01-26T03:54:34;99270.93;;;28.85;28.81
37291;BME280;23175;-33.706;151.094;2023-01-26T03:57:04;99271.98;;;28.37;29.93
37291;BME280;23175;-33.706;151.094;2023-01-26T03:59:33;99266.84;;;28.85;29.22
37291;BME280;23175;-33.706;151.094;2023-01-26T04:02:02;99268.74;;;31.69;25.24
37291;BME280;23175;-33.706;151.094;2023-01-26T04:04:32;99267.39;;;29.73;28.80
37291;BME280;23175;-33.706;151.094;2023-01-26T04:07:01;99273.17;;;30.36;27.97
37291;BME280;23175;-33.706;151.094;2023-01-26T04:09:31;99272.32;;;28.10;28.21
37291;BME280;23175;-33.706;151.094;2023-01-26T04:12:00;99274.85;;;29.00;26.31
37291;BME280;23175;-33.706;151.094;2023-01-26T04:14:30;99270.51;;;31.73;22.27
37291;BME280;23175;-33.706;151.094;2023-01-26T04:17:00;99264.49;;;29.78;22.78
37291;BME280;23175;-33.706;151.094;2023-01-26T04:19:30;99253.93;;;30.27;24.70
37291;BME280;23175;-33.706;151.094;2023-01-26T04:21:59;99248.58;;;28.18;27.94
37291;BME280;23175;-33.706;151.094;2023-01-26T04:24:29;99249.73;;;30.30;27.54
37291;BME280;23175;-33.706;151.094;2023-01-26T04:26:58;99237.33;;;30.84;26.18
37291;BME280;23175;-33.706;151.094;2023-01-26T04:29:27;99228.77;;;30.56;25.60
37291;BME280;23175;-33.706;151.094;2023-01-26T04:31:56;99236.55;;;28.18;29.12
37291;BME280;23175;-33.706;151.094;2023-01-26T04:34:25;99241.50;;;28.29;29.52
37291;BME280;23175;-33.706;151.094;2023-01-26T04:36:54;99245.99;;;29.07;29.58
37291;BME280;23175;-33.706;151.094;2023-01-26T04:39:23;99248.39;;;28.71;31.49
37291;BME280;23175;-33.706;151.094;2023-01-26T04:41:51;99249.73;;;29.02;31.97
37291;BME280;23175;-33.706;151.094;2023-01-26T04:44:20;99251.07;;;27.24;32.66
37291;BME280;23175;-33.706;151.094;2023-01-26T04:46:49;99259.14;;;27.57;33.47
37291;BME280;23175;-33.706;151.094;2023-01-26T04:49:18;99279.24;;;29.61;30.33
37291;BME280;23175;-33.706;151.094;2023-01-26T04:51:47;99311.34;;;28.33;32.54
37291;BME280;23175;-33.706;151.094;2023-01-26T04:54:16;99324.94;;;30.07;30.51
37291;BME280;23175;-33.706;151.094;2023-01-26T04:56:46;99333.61;;;30.27;31.48
37291;BME280;23175;-33.706;151.094;2023-01-26T04:59:16;99332.10;;;29.28;32.35
37291;BME280;23175;-33.706;151.094;2023-01-26T05:01:46;99308.02;;;27.73;36.17
37291;BME280;23175;-33.706;151.094;2023-01-26T05:04:16;99285.60;;;29.21;35.32
37291;BME280;23175;-33.706;151.094;2023-01-26T05:06:45;99301.28;;;27.34;41.19
37291;BME280;23175;-33.706;151.094;2023-01-26T05:09:15;99305.96;;;24.16;46.88
37291;BME280;23175;-33.706;151.094;2023-01-26T05:11:44;99309.91;;;27.52;41.97
37291;BME280;23175;-33.706;151.094;2023-01-26T05:14:14;99329.90;;;22.08;52.29
37291;BME280;23175;-33.706;151.094;2023-01-26T05:16:44;99333.95;;;25.17;47.95
37291;BME280;23175;-33.706;151.094;2023-01-26T05:19:13;99328.19;;;27.47;47.07
37291;BME280;23175;-33.706;151.094;2023-01-26T05:21:42;99313.43;;;26.90;45.49
37291;BME280;23175;-33.706;151.094;2023-01-26T05:24:12;99302.75;;;25.40;47.52
37291;BME280;23175;-33.706;151.094;2023-01-26T05:26:42;99301.01;;;23.81;48.84
37291;BME280;23175;-33.706;151.094;2023-01-26T05:29:11;99294.18;;;23.83;48.78
37291;BME280;23175;-33.706;151.094;2023-01-26T05:31:40;99293.58;;;24.78;46.87
37291;BME280;23175;-33.706;151.094;2023-01-26T05:34:09;99292.35;;;26.61;43.25
37291;BME280;23175;-33.706;151.094;2023-01-26T05:36:38;99288.45;;;26.42;42.72
37291;BME280;23175;-33.706;151.094;2023-01-26T05:39:08;99287.39;;;27.66;41.27
37291;BME280;23175;-33.706;151.094;2023-01-26T05:41:37;99278.63;;;25.89;42.95
37291;BME280;23175;-33.706;151.094;2023-01-26T05:44:08;99271.03;;;26.38;43.51
37291;BME280;23175;-33.706;151.094;2023-01-26T05:46:37;99268.62;;;25.35;44.33
37291;BME280;23175;-33.706;151.094;2023-01-26T05:49:07;99265.50;;;24.58;47.07
37291;BME280;23175;-33.706;151.094;2023-01-26T05:51:36;99260.86;;;22.48;51.75
37291;BME280;23175;-33.706;151.094;2023-01-26T05:54:05;99242.45;;;25.78;46.32
37291;BME280;23175;-33.706;151.094;2023-01-26T05:56:35;99233.77;;;27.10;44.50
37291;BME280;23175;-33.706;151.094;2023-01-26T05:59:04;99227.26;;;25.48;46.52
37291;BME280;23175;-33.706;151.094;2023-01-26T06:01:33;99223.33;;;25.72;45.20
37291;BME280;23175;-33.706;151.094;2023-01-26T06:04:03;99219.81;;;27.59;42.28
37291;BME280;23175;-33.706;151.094;2023-01-26T06:06:32;99215.00;;;25.46;45.50
37291;BME280;23175;-33.706;151.094;2023-01-26T06:09:01;99209.12;;;26.25;44.01
37291;BME280;23175;-33.706;151.094;2023-01-26T06:11:31;99209.12;;;27.23;40.97
37291;BME280;23175;-33.706;151.094;2023-01-26T06:14:01;99211.19;;;25.05;44.27
37291;BME280;23175;-33.706;151.094;2023-01-26T06:16:30;99213.33;;;27.88;40.13
37291;BME280;23175;-33.706;151.094;2023-01-26T06:18:59;99208.32;;;26.77;40.33
37291;BME280;23175;-33.706;151.094;2023-01-26T06:21:29;99209.90;;;27.18;39.67
37291;BME280;23175;-33.706;151.094;2023-01-26T06:23:59;99215.33;;;27.55;39.89
37291;BME280;23175;-33.706;151.094;2023-01-26T06:26:29;99212.43;;;25.34;42.02
37291;BME280;23175;-33.706;151.094;2023-01-26T06:28:58;99213.31;;;25.22;42.10
37291;BME280;23175;-33.706;151.094;2023-01-26T06:31:27;99214.72;;;25.68;42.14
37291;BME280;23175;-33.706;151.094;2023-01-26T06:33:56;99218.87;;;25.87;40.85
37291;BME280;23175;-33.706;151.094;2023-01-26T06:36:25;99220.02;;;27.30;39.42
37291;BME280;23175;-33.706;151.094;2023-01-26T06:38:55;99226.59;;;25.88;40.69
37291;BME280;23175;-33.706;151.094;2023-01-26T06:41:24;99230.64;;;25.09;42.11
37291;BME280;23175;-33.706;151.094;2023-01-26T06:43:53;99239.21;;;27.90;39.37
37291;BME280;23175;-33.706;151.094;2023-01-26T06:46:23;99244.69;;;28.18;38.09
37291;BME280;23175;-33.706;151.094;2023-01-26T06:48:53;99250.25;;;29.20;34.89
37291;BME280;23175;-33.706;151.094;2023-01-26T06:51:49;99260.10;;;27.45;36.29
37291;BME280;23175;-33.706;151.094;2023-01-26T06:54:20;99261.40;;;26.55;36.03
37291;BME280;23175;-33.706;151.094;2023-01-26T06:56:49;99249.89;;;27.42;35.31
37291;BME280;23175;-33.706;151.094;2023-01-26T06:59:19;99242.14;;;24.22;39.00
37291;BME280;23175;-33.706;151.094;2023-01-26T07:01:48;99239.11;;;24.15;41.23
37291;BME280;23175;-33.706;151.094;2023-01-26T07:04:18;99237.48;;;25.62;38.24
37291;BME280;23175;-33.706;151.094;2023-01-26T07:06:48;99235.23;;;24.31;40.94
37291;BME280;23175;-33.706;151.094;2023-01-26T07:09:17;99233.75;;;26.89;38.32
37291;BME280;23175;-33.706;151.094;2023-01-26T07:11:47;99238.64;;;24.08;42.34
37291;BME280;23175;-33.706;151.094;2023-01-26T07:14:16;99237.14;;;25.18;40.62
37291;BME280;23175;-33.706;151.094;2023-01-26T07:16:45;99237.16;;;24.70;40.50
37291;BME280;23175;-33.706;151.094;2023-01-26T07:19:15;99243.85;;;22.61;44.77
37291;BME280;23175;-33.706;151.094;2023-01-26T07:21:44;99242.35;;;24.07;43.84
37291;BME280;23175;-33.706;151.094;2023-01-26T07:24:14;99248.05;;;26.04;41.53
37291;BME280;23175;-33.706;151.094;2023-01-26T07:26:44;99252.68;;;24.36;43.95
37291;BME280;23175;-33.706;151.094;2023-01-26T07:29:14;99263.70;;;24.94;43.44
37291;BME280;23175;-33.706;151.094;2023-01-26T07:31:43;99270.86;;;24.67;43.63
37291;BME280;23175;-33.706;151.094;2023-01-26T07:34:13;99280.21;;;22.81;48.81
37291;BME280;23175;-33.706;151.094;2023-01-26T07:36:42;99284.74;;;23.25;47.81
37291;BME280;23175;-33.706;151.094;2023-01-26T07:39:11;99281.95;;;24.79;45.25
37291;BME280;23175;-33.706;151.094;2023-01-26T07:41:40;99289.38;;;26.20;43.21
37291;BME280;23175;-33.706;151.094;2023-01-26T07:44:10;99294.77;;;26.18;43.79
37291;BME280;23175;-33.706;151.094;2023-01-26T07:46:40;99293.57;;;26.77;42.74
37291;BME280;23175;-33.706;151.094;2023-01-26T07:49:09;99294.88;;;24.87;45.49
37291;BME280;23175;-33.706;151.094;2023-01-26T07:51:40;99294.47;;;25.86;44.72
37291;BME280;23175;-33.706;151.094;2023-01-26T07:54:11;99290.84;;;24.64;46.10
37291;BME280;23175;-33.706;151.094;2023-01-26T07:56:40;99291.33;;;24.52;45.89
37291;BME280;23175;-33.706;151.094;2023-01-26T07:59:11;99289.76;;;24.39;46.06
37291;BME280;23175;-33.706;151.094;2023-01-26T08:01:40;99290.66;;;24.93;45.47
37291;BME280;23175;-33.706;151.094;2023-01-26T08:04:10;99286.15;;;25.27;44.79
37291;BME280;23175;-33.706;151.094;2023-01-26T08:06:39;99283.73;;;26.50;42.74
37291;BME280;23175;-33.706;151.094;2023-01-26T08:09:09;99291.30;;;26.47;43.04
37291;BME280;23175;-33.706;151.094;2023-01-26T08:11:38;99300.87;;;26.49;43.21
37291;BME280;23175;-33.706;151.094;2023-01-26T08:14:07;99306.13;;;27.58;41.21
37291;BME280;23175;-33.706;151.094;2023-01-26T08:16:36;99305.78;;;26.18;42.03
37291;BME280;23175;-33.706;151.094;2023-01-26T08:19:06;99308.01;;;27.83;39.66
37291;BME280;23175;-33.706;151.094;2023-01-26T08:21:35;99314.42;;;27.59;40.23
37291;BME280;23175;-33.706;151.094;2023-01-26T08:24:06;99321.21;;;26.64;40.29
37291;BME280;23175;-33.706;151.094;2023-01-26T08:26:35;99330.85;;;25.90;41.25
37291;BME280;23175;-33.706;151.094;2023-01-26T08:29:05;99344.81;;;27.33;39.62
37291;BME280;23175;-33.706;151.094;2023-01-26T08:31:34;99355.52;;;24.42;42.96
37291;BME280;23175;-33.706;151.094;2023-01-26T08:34:03;99362.65;;;25.25;43.08
37291;BME280;23175;-33.706;151.094;2023-01-26T08:36:33;99366.60;;;23.76;44.26
37291;BME280;23175;-33.706;151.094;2023-01-26T08:39:02;99365.80;;;24.85;41.50
37291;BME280;23175;-33.706;151.094;2023-01-26T08:41:32;99371.02;;;27.68;38.01
37291;BME280;23175;-33.706;151.094;2023-01-26T08:44:01;99378.65;;;27.09;39.20
37291;BME280;23175;-33.706;151.094;2023-01-26T08:46:30;99396.27;;;26.96;38.70
37291;BME280;23175;-33.706;151.094;2023-01-26T08:49:00;99419.89;;;27.21;38.23
37291;BME280;23175;-33.706;151.094;2023-01-26T08:51:30;99421.06;;;26.31;40.04
37291;BME280;23175;-33.706;151.094;2023-01-26T08:54:00;99422.00;;;24.05;42.29
37291;BME280;23175;-33.706;151.094;2023-01-26T08:56:30;99426.69;;;22.98;44.87
37291;BME280;23175;-33.706;151.094;2023-01-26T08:58:59;99429.08;;;25.78;42.93
37291;BME280;23175;-33.706;151.094;2023-01-26T09:01:29;99436.35;;;23.96;45.86
37291;BME280;23175;-33.706;151.094;2023-01-26T09:03:58;99443.96;;;23.47;47.91
37291;BME280;23175;-33.706;151.094;2023-01-26T09:06:28;99456.21;;;24.51;45.50
37291;BME280;23175;-33.706;151.094;2023-01-26T09:08:58;99473.16;;;26.58;42.97
37291;BME280;23175;-33.706;151.094;2023-01-26T09:11:27;99489.20;;;24.34;46.29
37291;BME280;23175;-33.706;151.094;2023-01-26T09:13:56;99492.61;;;25.14;45.73
37291;BME280;23175;-33.706;151.094;2023-01-26T09:16:26;99502.13;;;24.51;46.38
37291;BME280;23175;-33.706;151.094;2023-01-26T09:18:55;99508.54;;;24.34;46.98
37291;BME280;23175;-33.706;151.094;2023-01-26T09:21:24;99524.22;;;23.52;48.63
37291;BME280;23175;-33.706;151.094;2023-01-26T09:23:55;99537.97;;;25.56;45.43
37291;BME280;23175;-33.706;151.094;2023-01-26T09:26:24;99538.69;;;22.87;50.15
37291;BME280;23175;-33.706;151.094;2023-01-26T09:28:54;99562.10;;;25.56;46.39
37291;BME280;23175;-33.706;151.094;2023-01-26T09:31:23;99587.33;;;24.28;47.54
37291;BME280;23175;-33.706;151.094;2023-01-26T09:33:52;99605.24;;;23.52;49.83
37291;BME280;23175;-33.706;151.094;2023-01-26T09:36:22;99623.12;;;22.87;49.57
37291;BME280;23175;-33.706;151.094;2023-01-26T09:38:51;99644.18;;;24.26;47.42
37291;BME280;23175;-33.706;151.094;2023-01-26T09:41:44;99655.95;;;24.05;46.79
37291;BME280;23175;-33.706;151.094;2023-01-26T09:44:19;99666.14;;;25.01;47.79
37291;BME280;23175;-33.706;151.094;2023-01-26T09:47:01;99682.04;;;24.65;48.73
37291;BME280;23175;-33.706;151.094;2023-01-26T09:49:41;99696.57;;;22.53;52.89
37291;BME280;23175;-33.706;151.094;2023-01-26T09:52:19;99694.72;;;24.73;49.47
37291;BME280;23175;-33.706;151.094;2023-01-26T09:54:52;99698.39;;;26.12;48.08
37291;BME280;23175;-33.706;151.094;2023-01-26T09:57:29;99703.99;;;23.09;52.66
37291;BME280;23175;-33.706;151.094;2023-01-26T10:00:04;99701.86;;;23.56;53.51
37291;BME280;23175;-33.706;151.094;2023-01-26T10:02:43;99693.11;;;23.80;52.34
37291;BME280;23175;-33.706;151.094;2023-01-26T10:05:21;99686.70;;;23.84;52.52
37291;BME280;23175;-33.706;151.094;2023-01-26T10:07:54;99680.25;;;25.12;49.28
37291;BME280;23175;-33.706;151.094;2023-01-26T10:10:27;99661.21;;;23.26;51.43
37291;BME280;23175;-33.706;151.094;2023-01-26T10:12:58;99648.99;;;24.72;49.57
37291;BME280;23175;-33.706;151.094;2023-01-26T10:15:32;99640.75;;;24.17;51.32
37291;BME280;23175;-33.706;151.094;2023-01-26T10:18:08;99643.54;;;22.26;55.11
37291;BME280;23175;-33.706;151.094;2023-01-26T10:20:41;99661.50;;;24.56;51.04
37291;BME280;23175;-33.706;151.094;2023-01-26T10:23:16;99680.30;;;22.15;55.38
37291;BME280;23175;-33.706;151.094;2023-01-26T10:25:46;99680.82;;;21.52;56.62
37291;BME280;23175;-33.706;151.094;2023-01-26T10:28:18;99664.98;;;21.88;55.99
37291;BME280;23175;-33.706;151.094;2023-01-26T10:30:48;99645.97;;;21.31;56.81
37291;BME280;23175;-33.706;151.094;2023-01-26T10:33:20;99632.56;;;21.95;55.91
37291;BME280;23175;-33.706;151.094;2023-01-26T10:35:52;99626.26;;;22.39;56.53
37291;BME280;23175;-33.706;151.094;2023-01-26T10:38:40;99634.36;;;19.52;59.67
37291;BME280;23175;-33.706;151.094;2023-01-26T10:41:24;99628.92;;;21.22;59.08
37291;BME280;23175;-33.706;151.094;2023-01-26T10:43:56;99616.65;;;21.57;58.79
37291;BME280;23175;-33.706;151.094;2023-01-26T10:46:29;99594.69;;;21.39;58.61
37291;BME280;23175;-33.706;151.094;2023-01-26T10:49:00;99589.02;;;22.33;57.18
37291;BME280;23175;-33.706;151.094;2023-01-26T10:51:31;99594.30;;;21.89;58.34
37291;BME280;23175;-33.706;151.094;2023-01-26T10:54:24;99603.18;;;23.88;53.22
37291;BME280;23175;-33.706;151.094;2023-01-26T10:56:55;99614.86;;;21.94;56.27
37291;BME280;23175;-33.706;151.094;2023-01-26T10:59:36;99616.90;;;22.50;53.66
37291;BME280;23175;-33.706;151.094;2023-01-26T11:02:22;99624.81;;;20.72;58.80
37291;BME280;23175;-33.706;151.094;2023-01-26T11:05:25;99624.61;;;21.70;56.58
37291;BME280;23175;-33.706;151.094;2023-01-26T11:07:55;99618.71;;;22.19;56.56
37291;BME280;23175;-33.706;151.094;2023-01-26T11:10:28;99613.64;;;20.69;57.92
37291;BME280;23175;-33.706;151.094;2023-01-26T11:13:17;99618.64;;;20.90;57.44
37291;BME280;23175;-33.706;151.094;2023-01-26T11:15:47;99633.36;;;21.49;57.59
37291;BME280;23175;-33.706;151.094;2023-01-26T11:18:28;99641.56;;;19.55;62.05
37291;BME280;23175;-33.706;151.094;2023-01-26T11:21:04;99641.08;;;22.81;54.84
37291;BME280;23175;-33.706;151.094;2023-01-26T11:23:44;99655.07;;;19.10;62.63
37291;BME280;23175;-33.706;151.094;2023-01-26T11:26:36;99661.80;;;19.54;61.16
37291;BME280;23175;-33.706;151.094;2023-01-26T11:29:26;99666.68;;;20.56;59.69
37291;BME280;23175;-33.706;151.094;2023-01-26T11:32:05;99664.68;;;22.08;56.28
37291;BME280;23175;-33.706;151.094;2023-01-26T11:34:44;99654.18;;;22.00;56.17
37291;BME280;23175;-33.706;151.094;2023-01-26T11:37:37;99655.68;;;20.62;58.73
37291;BME280;23175;-33.706;151.094;2023-01-26T11:40:25;99657.04;;;20.62;57.58
37291;BME280;23175;-33.706;151.094;2023-01-26T11:43:16;99663.73;;;20.82;58.57
37291;BME280;23175;-33.706;151.094;2023-01-26T11:46:05;99671.45;;;22.14;55.40
37291;BME280;23175;-33.706;151.094;2023-01-26T11:48:47;99672.61;;;21.31;56.89
37291;BME280;23175;-33.706;151.094;2023-01-26T11:51:29;99669.93;;;21.19;55.68
37291;BME280;23175;-33.706;151.094;2023-01-26T11:54:37;99674.37;;;20.55;58.79
37291;BME280;23175;-33.706;151.094;2023-01-26T11:57:17;99670.83;;;19.93;59.98
37291;BME280;23175;-33.706;151.094;2023-01-26T11:59:52;99664.33;;;20.16;59.44
37291;BME280;23175;-33.706;151.094;2023-01-26T12:02:28;99669.48;;;20.93;57.98
37291;BME280;23175;-33.706;151.094;2023-01-26T12:05:02;99677.83;;;21.65;56.60
37291;BME280;23175;-33.706;151.094;2023-01-26T12:07:40;99680.21;;;19.77;60.65
37291;BME280;23175;-33.706;151.094;2023-01-26T12:10:15;99678.64;;;19.19;61.25
37291;BME280;23175;-33.706;151.094;2023-01-26T12:12:49;99682.12;;;20.60;58.74
37291;BME280;23175;-33.706;151.094;2023-01-26T12:15:24;99678.13;;;21.56;54.96
37291;BME280;23175;-33.706;151.094;2023-01-26T12:18:00;99680.48;;;22.79;54.65
37291;BME280;23175;-33.706;151.094;2023-01-26T12:20:38;99686.50;;;20.66;56.92
37291;BME280;23175;-33.706;151.094;2023-01-26T12:23:15;99694.14;;;22.51;55.31
37291;BME280;23175;-33.706;151.094;2023-01-26T12:25:54;99701.82;;;20.78;57.75
37291;BME280;23175;-33.706;151.094;2023-01-26T12:28:29;99709.53;;;23.49;52.08
37291;BME280;23175;-33.706;151.094;2023-01-26T12:31:05;99709.69;;;23.74;51.50
37291;BME280;23175;-33.706;151.094;2023-01-26T12:33:36;99710.11;;;24.32;49.96
37291;BME280;23175;-33.706;151.094;2023-01-26T12:36:18;99717.64;;;20.00;57.40
37291;BME280;23175;-33.706;151.094;2023-01-26T12:39:04;99716.65;;;21.78;54.89
37291;BME280;23175;-33.706;151.094;2023-01-26T12:41:44;99714.14;;;21.13;55.63
37291;BME280;23175;-33.706;151.094;2023-01-26T12:44:24;99720.04;;;19.97;59.02
37291;BME280;23175;-33.706;151.094;2023-01-26T12:47:00;99721.46;;;23.32;52.09
37291;BME280;23175;-33.706;151.094;2023-01-26T12:49:36;99727.86;;;22.00;53.99
37291;BME280;23175;-33.706;151.094;2023-01-26T12:52:14;99730.75;;;21.49;54.54
37291;BME280;23175;-33.706;151.094;2023-01-26T12:54:52;99730.23;;;24.06;50.40